Time;durP1;ratioP1;P1;durP2;ratioP2;P2;SDS_P1;SDS_P2;PMS_P1;PMS_P2;Temp;Humidity;BMP_temperature;BMP_pressure;BME280_temperature;BME280_humidity;BME280_pressure;Samples;Min_cycle;Max_cycle;Signal;HPM_P1;HPM_P2
2023/03/30 00:00:57;;;;;;;;;5.17;4.50;;;;;17.36;51.57;100824.81;1988228;28;2740903;-76
2023/03/30 00:02:07;;;;;;;;;3.33;3.33;;;;;17.36;50.57;100833.59;1962885;28;2746505;-77
2023/03/30 00:03:21;;;;;;;;;6.67;5.67;;;;;17.36;51.37;100830.94;1993432;28;2748184;-77
2023/03/30 00:04:36;;;;;;;;;5.17;4.33;;;;;17.35;51.10;100825.75;2002452;28;2746116;-77
2023/03/30 00:05:50;;;;;;;;;5.00;5.00;;;;;17.35;51.34;100823.94;1976390;28;2746129;-77
2023/03/30 00:07:04;;;;;;;;;2.33;2.33;;;;;17.35;50.91;100826.59;1974073;28;2726651;-77
2023/03/30 00:08:17;;;;;;;;;5.00;5.00;;;;;17.36;50.76;100822.97;1948953;28;2752384;-77
2023/03/30 00:09:29;;;;;;;;;4.33;4.00;;;;;17.36;50.96;100816.84;1979130;28;2747129;-76
2023/03/30 00:10:43;;;;;;;;;9.00;5.00;;;;;17.36;50.91;100827.47;1978808;28;2750290;-77
2023/03/30 00:11:53;;;;;;;;;4.00;4.00;;;;;17.35;50.77;100825.75;1971029;28;2748218;-77
2023/03/30 00:13:04;;;;;;;;;4.33;3.00;;;;;17.36;51.21;100832.78;1987243;28;2752385;-77
2023/03/30 00:14:16;;;;;;;;;4.00;4.00;;;;;17.34;50.90;100824.03;1987715;28;2752352;-77
2023/03/30 00:15:27;;;;;;;;;5.00;5.00;;;;;17.32;50.87;100803.72;1978059;28;2750279;-77
2023/03/30 00:16:38;;;;;;;;;4.00;4.00;;;;;17.34;50.85;100797.47;2003288;28;2744014;-77
2023/03/30 00:17:53;;;;;;;;;7.33;5.67;;;;;17.34;50.81;100792.16;1981502;28;2742985;-77
2023/03/30 00:19:06;;;;;;;;;5.33;4.33;;;;;17.34;51.15;100797.47;1981612;28;2736737;-77
2023/03/30 00:20:17;;;;;;;;;8.33;5.33;;;;;17.34;50.89;100800.97;1952872;28;3455481;-77
2023/03/30 00:21:29;;;;;;;;;5.00;5.00;;;;;17.34;51.15;100803.63;2003321;28;2742984;-77
2023/03/30 00:22:44;;;;;;;;;4.83;3.67;;;;;17.34;51.18;100784.19;2004022;28;2750294;-77
2023/03/30 00:23:57;;;;;;;;;1.83;1.83;;;;;17.32;50.79;100777.16;1981650;28;2736736;-77
2023/03/30 00:25:13;;;;;;;;;4.83;4.00;;;;;17.32;51.16;100778.97;1980668;28;2740914;-77
2023/03/30 00:26:23;;;;;;;;;4.00;4.00;;;;;17.31;51.26;100783.41;1956401;28;2750395;-77
2023/03/30 00:27:35;;;;;;;;;6.00;5.00;;;;;17.32;51.10;100786.94;1995800;28;2746126;-77
2023/03/30 00:28:46;;;;;;;;;6.33;6.00;;;;;17.31;50.74;100791.38;1978974;28;2745056;-77
2023/03/30 00:29:57;;;;;;;;;5.33;5.00;;;;;17.30;50.94;100792.34;1994808;28;2742995;-77
2023/03/30 00:31:10;;;;;;;;;3.33;3.33;;;;;17.29;51.09;100779.16;1992172;28;2749250;-77
2023/03/30 00:32:23;;;;;;;;;4.50;3.00;;;;;17.29;51.11;100781.81;2011089;28;2742974;-77
2023/03/30 00:33:36;;;;;;;;;4.00;4.00;;;;;17.28;51.15;100778.31;1986534;28;2749227;-77
2023/03/30 00:34:49;;;;;;;;;8.67;5.67;;;;;17.28;51.14;100772.16;1981046;28;2745094;-76
2023/03/30 00:36:00;;;;;;;;;3.00;3.00;;;;;17.27;51.17;100771.28;1955761;28;2753518;-77
2023/03/30 00:37:14;;;;;;;;;4.00;4.00;;;;;17.26;51.41;100777.53;2002976;28;2749249;-77
2023/03/30 00:38:28;;;;;;;;;7.83;5.67;;;;;17.25;51.90;100782.94;2003530;28;2745070;-77
2023/03/30 00:39:42;;;;;;;;;8.50;4.83;;;;;17.24;51.70;100774.13;1993177;28;2745132;-77
2023/03/30 00:40:58;;;;;;;;;6.00;4.00;;;;;17.22;51.55;100778.69;1969754;28;2748166;-77
2023/03/30 00:42:14;;;;;;;;;6.00;4.00;;;;;17.21;51.57;100767.19;1984267;28;2746152;-77
2023/03/30 00:43:25;;;;;;;;;7.00;6.00;;;;;17.20;52.16;100772.59;1979242;28;2742970;-77
2023/03/30 00:44:57;;;;;;;;;5.17;4.33;;;;;17.20;51.93;100780.56;2003851;28;2739874;-77
2023/03/30 00:46:10;;;;;;;;;3.17;3.17;;;;;17.18;52.18;100782.47;1988545;28;2739852;-77
2023/03/30 00:47:24;;;;;;;;;8.50;6.67;;;;;17.19;52.65;100778.84;1985715;28;2741968;-77
2023/03/30 00:48:37;;;;;;;;;7.67;4.00;;;;;17.18;52.92;100771.84;1978635;28;2737803;-77
2023/03/30 00:49:51;;;;;;;;;8.67;6.17;;;;;17.17;52.15;100762.16;2003258;28;2738832;-77
2023/03/30 00:51:08;;;;;;;;;5.00;5.00;;;;;17.15;52.40;100767.56;1955888;28;2743081;-77
2023/03/30 00:52:23;;;;;;;;;6.00;4.33;;;;;17.16;52.48;100771.09;1979155;28;2742970;-77
2023/03/30 00:53:44;;;;;;;;;7.67;6.33;;;;;17.14;52.33;100765.81;2004213;28;2745057;-77
2023/03/30 00:54:56;;;;;;;;;5.00;4.00;;;;;17.13;52.19;100765.94;1955499;28;2744047;-77
2023/03/30 00:56:09;;;;;;;;;4.00;4.00;;;;;17.13;52.72;100760.63;1976451;28;3457538;-77
2023/03/30 00:57:23;;;;;;;;;4.00;4.00;;;;;17.10;52.07;100754.56;1978348;28;2743034;-77
2023/03/30 00:58:35;;;;;;;;;3.33;3.00;;;;;17.10;52.16;100762.50;1976879;28;2742023;-77
2023/03/30 00:59:46;;;;;;;;;9.00;4.33;;;;;17.09;52.21;100766.09;1969384;28;3463790;-77
2023/03/30 01:01:02;;;;;;;;;3.40;2.20;;;;;17.11;52.87;100771.34;1995643;28;2751355;-77
2023/03/30 01:02:13;;;;;;;;;6.33;4.00;;;;;17.09;52.75;100771.41;1976594;28;3457517;-77
2023/03/30 01:03:30;;;;;;;;;4.83;4.83;;;;;17.09;52.54;100762.59;2004659;28;2738911;-77
2023/03/30 01:04:45;;;;;;;;;5.50;4.17;;;;;17.09;52.63;100762.59;2001017;28;2746108;-77
2023/03/30 01:06:01;;;;;;;;;8.33;6.17;;;;;17.08;52.75;100761.75;1973975;28;2740907;-77
2023/03/30 01:07:15;;;;;;;;;7.83;5.00;;;;;17.09;52.42;100758.13;1975723;28;2746098;-77
2023/03/30 01:08:31;;;;;;;;;7.00;4.33;;;;;17.09;52.38;100759.94;1957176;28;2746170;-77
2023/03/30 01:09:43;;;;;;;;;3.00;3.00;;;;;17.10;52.54;100769.63;1971680;28;2742970;-77
2023/03/30 01:10:55;;;;;;;;;5.00;5.00;;;;;17.10;52.77;100767.81;1973351;28;2741935;-77
2023/03/30 01:12:09;;;;;;;;;6.00;5.00;;;;;17.11;52.39;100766.03;2004947;28;2746118;-77
2023/03/30 01:13:20;;;;;;;;;7.00;4.33;;;;;17.11;52.56;100771.34;1957387;28;2746102;-77
2023/03/30 01:14:31;;;;;;;;;4.00;4.00;;;;;17.13;52.50;100763.28;1986130;28;2750766;-77
2023/03/30 01:15:57;;;;;;;;;6.00;4.00;;;;;17.13;52.30;100771.25;2005620;28;2742417;-77
2023/03/30 01:17:30;;;;;;;;;4.83;4.33;;;;;17.14;52.36;100775.59;1989080;28;2746188;-77
2023/03/30 01:19:02;;;;;;;;;3.33;3.33;;;;;17.12;52.71;100782.78;1966462;28;2752348;-77
2023/03/30 01:20:13;;;;;;;;;7.67;4.00;;;;;17.12;52.65;100774.81;1952317;29;2745078;-77
2023/03/30 01:21:39;;;;;;;;;4.00;4.00;;;;;17.10;52.88;100773.13;1983701;28;2753456;-77
2023/03/30 01:23:13;;;;;;;;;4.33;3.83;;;;;17.10;52.39;100773.13;2009511;28;2737773;-77
2023/03/30 01:24:52;;;;;;;;;5.00;5.00;;;;;17.10;52.75;100781.09;1981619;28;2748174;-77
2023/03/30 01:26:47;;;;;;;;;5.50;4.17;;;;;17.10;52.45;100786.41;1981829;28;2747143;-77
2023/03/30 01:28:21;;;;;;;;;4.67;3.17;;;;;17.09;52.53;100749.31;1973580;28;2750355;-77
2023/03/30 01:29:50;;;;;;;;;5.33;4.00;;;;;17.09;52.35;100751.97;1976950;28;2744022;-77
2023/03/30 01:31:24;;;;;;;;;5.33;4.50;;;;;17.09;52.91;100750.16;1982314;28;2742966;-77
2023/03/30 01:32:43;;;;;;;;;5.50;4.83;;;;;17.08;52.68;100753.78;1981749;28;2743080;-77
2023/03/30 01:34:16;;;;;;;;;3.33;3.33;;;;;17.08;52.77;100759.09;1980752;28;2744027;-77
2023/03/30 01:36:03;;;;;;;;;3.00;3.00;;;;;17.08;52.69;100756.44;1957054;28;2752731;-77
2023/03/30 01:37:22;;;;;;;;;3.00;2.00;;;;;17.07;52.45;100759.19;2004224;28;2747133;-77
2023/03/30 01:39:03;;;;;;;;;4.00;4.00;;;;;17.07;52.92;100775.97;1981324;28;2754480;-77
2023/03/30 01:40:37;;;;;;;;;3.00;2.67;;;;;17.05;52.48;100761.94;1989319;28;2741944;-77
2023/03/30 01:41:58;;;;;;;;;4.17;4.00;;;;;17.06;52.59;100778.72;2001517;28;2735777;-77
2023/03/30 01:43:19;;;;;;;;;4.67;4.17;;;;;17.04;52.59;100781.47;1982564;28;2739910;-77
2023/03/30 01:44:55;;;;;;;;;2.00;2.00;;;;;17.05;53.32;100792.94;1973435;28;2736728;-77
2023/03/30 01:46:29;;;;;;;;;3.50;3.00;;;;;17.04;52.98;100799.22;1976118;28;2741936;-77
2023/03/30 01:47:55;;;;;;;;;4.00;4.00;;;;;17.04;52.74;100791.25;1956668;28;2754440;-77
2023/03/30 01:49:16;;;;;;;;;4.00;2.83;;;;;17.03;52.85;100789.53;2003922;28;2736736;-77
2023/03/30 01:50:30;;;;;;;;;3.00;3.00;;;;;17.04;53.15;100776.16;1982095;28;2740917;-77
2023/03/30 01:51:59;;;;;;;;;2.83;2.83;;;;;17.03;53.41;100774.44;1982661;28;2740894;-77
2023/03/30 01:53:26;;;;;;;;;3.00;3.00;;;;;17.03;52.98;100784.22;1982854;28;2738831;-78
2023/03/30 01:55:15;;;;;;;;;3.00;3.00;;;;;17.04;53.11;100783.28;1982773;28;2740911;-77
2023/03/30 01:56:34;;;;;;;;;3.50;3.17;;;;;17.02;53.06;100779.84;1974017;28;2752384;-77
2023/03/30 01:57:50;;;;;;;;;4.33;3.00;;;;;17.02;52.80;100777.19;1952702;28;2743996;-77
2023/03/30 01:59:06;;;;;;;;;4.17;3.50;;;;;17.03;53.22;100778.91;2012090;28;2745118;-77
2023/03/30 02:00:23;;;;;;;;;6.67;4.17;;;;;17.01;53.17;100781.66;1973799;28;2748206;-77
2023/03/30 02:01:40;;;;;;;;;3.67;3.00;;;;;17.02;53.02;100782.50;1981773;28;2746095;-77
2023/03/30 02:02:59;;;;;;;;;3.50;3.50;;;;;17.01;52.99;100779.00;1980188;28;2750292;-77
2023/03/30 02:04:13;;;;;;;;;5.00;2.33;;;;;17.02;53.14;100774.53;1979962;28;2733592;-77
2023/03/30 02:05:29;;;;;;;;;3.00;3.00;;;;;17.01;52.55;100771.03;1989025;28;2733635;-77
2023/03/30 02:06:47;;;;;;;;;3.17;3.17;;;;;17.01;53.21;100757.78;1987884;28;2737766;-77
2023/03/30 02:08:18;;;;;;;;;2.00;1.33;;;;;17.00;52.67;100753.38;1982785;28;2737778;-77
2023/03/30 02:09:36;;;;;;;;;4.50;4.50;;;;;17.01;53.38;100751.59;1973407;28;2750700;-77
2023/03/30 02:10:52;;;;;;;;;2.83;2.83;;;;;16.99;53.19;100741.06;1976996;28;2729471;-77
2023/03/30 02:12:04;;;;;;;;;5.00;3.67;;;;;17.00;53.35;100756.03;1948623;28;2750273;-77
2023/03/30 02:13:19;;;;;;;;;4.00;3.00;;;;;16.98;53.16;100774.72;1998022;28;2737755;-77
2023/03/30 02:14:35;;;;;;;;;4.67;3.17;;;;;16.98;52.92;100787.16;1980076;28;2744027;-77
2023/03/30 02:15:55;;;;;;;;;5.00;4.00;;;;;16.98;53.30;100781.84;1957106;28;2746099;-77
2023/03/30 02:17:25;;;;;;;;;3.50;2.50;;;;;16.97;52.86;100780.97;2005144;28;2736756;-77
2023/03/30 02:18:39;;;;;;;;;1.00;1.00;;;;;16.97;53.05;100791.59;1982777;28;2741956;-77
2023/03/30 02:19:55;;;;;;;;;4.00;3.00;;;;;16.95;53.02;100792.63;1982018;28;2735703;-77
2023/03/30 02:21:08;;;;;;;;;2.00;2.00;;;;;16.94;52.94;100796.25;1981699;28;2734618;-77
2023/03/30 02:22:22;;;;;;;;;3.67;2.67;;;;;16.93;53.04;100799.84;1982137;28;2742369;-77
2023/03/30 02:23:41;;;;;;;;;3.83;3.00;;;;;16.91;53.00;100802.59;1983570;28;2721187;-77
2023/03/30 02:24:56;;;;;;;;;3.50;3.00;;;;;16.92;53.08;100811.38;1982187;28;2741956;-77
2023/03/30 02:26:08;;;;;;;;;5.00;2.67;;;;;16.90;53.11;100806.19;1956661;28;2753405;-77
2023/03/30 02:27:21;;;;;;;;;2.00;2.00;;;;;16.90;53.36;100800.88;1979621;28;2753426;-77
2023/03/30 02:28:35;;;;;;;;;3.33;2.50;;;;;16.90;52.73;100792.03;2006231;28;2724220;-77
2023/03/30 02:29:48;;;;;;;;;2.00;2.00;;;;;16.89;52.72;100787.69;1982474;28;2738231;-77
2023/03/30 02:31:03;;;;;;;;;3.83;3.33;;;;;16.86;52.79;100789.59;1981684;28;2737794;-77
2023/03/30 02:32:26;;;;;;;;;2.83;2.83;;;;;16.85;53.02;100789.66;1981829;28;2739864;-77
2023/03/30 02:33:59;;;;;;;;;4.00;3.00;;;;;16.84;53.14;100791.47;1996148;28;2735682;-77
2023/03/30 02:35:31;;;;;;;;;2.83;2.83;;;;;16.84;53.10;100811.88;1985539;28;2734428;-77
2023/03/30 02:37:02;;;;;;;;;2.33;1.00;;;;;16.84;52.91;100827.78;1979626;28;2731516;-77
2023/03/30 02:38:28;;;;;;;;;2.17;2.17;;;;;16.85;53.15;100840.09;2004778;28;2746100;-77
2023/03/30 02:40:13;;;;;;;;;2.67;2.50;;;;;16.86;53.27;100831.22;1982804;28;2732557;-77
2023/03/30 02:41:49;;;;;;;;;4.00;2.83;;;;;16.86;53.06;100825.91;1971328;28;2746091;-77
2023/03/30 02:43:21;;;;;;;;;2.33;2.17;;;;;16.84;53.25;100841.91;1978754;28;2741924;-77
2023/03/30 02:45:07;;;;;;;;;2.33;2.33;;;;;16.84;53.26;100847.19;1982511;28;2737837;-77
2023/03/30 02:46:46;;;;;;;;;3.17;2.00;;;;;16.82;52.83;100833.16;1990132;28;2725278;-76
2023/03/30 02:48:14;;;;;;;;;2.00;2.00;;;;;16.82;53.08;100840.28;1984308;28;2751322;-77
2023/03/30 02:50:07;;;;;;;;;2.33;2.33;;;;;16.81;53.49;100863.31;1982232;28;2733595;-77
2023/03/30 02:51:30;;;;;;;;;2.67;2.67;;;;;16.82;53.00;100851.75;1949128;28;2754477;-76
2023/03/30 02:53:07;;;;;;;;;1.83;1.83;;;;;16.81;53.18;100846.53;1999479;28;2740318;-77
2023/03/30 02:54:29;;;;;;;;;1.67;1.67;;;;;16.80;53.35;100848.34;1981778;28;2733619;-77
2023/03/30 02:56:02;;;;;;;;;1.83;1.83;;;;;16.78;53.05;100834.28;1987194;28;2733600;-77
2023/03/30 02:57:56;;;;;;;;;3.67;1.67;;;;;16.75;53.09;100821.19;1982788;28;2736724;-77
2023/03/30 02:59:38;;;;;;;;;3.50;2.67;;;;;16.73;53.26;100816.00;1982474;28;2737833;-77
2023/03/30 03:00:53;;;;;;;;;3.33;2.33;;;;;16.72;53.47;100822.22;1962605;28;2751319;-77
2023/03/30 03:02:20;;;;;;;;;2.00;2.00;;;;;16.73;53.27;100836.38;1976960;28;2751300;-77
2023/03/30 03:03:42;;;;;;;;;2.33;2.33;;;;;16.71;53.43;100840.91;1992163;28;2738812;-77
2023/03/30 03:04:55;;;;;;;;;5.00;2.67;;;;;16.71;53.01;100848.88;1982946;28;2730829;-77
2023/03/30 03:06:10;;;;;;;;;4.17;1.50;;;;;16.71;53.25;100851.53;1988463;28;2733619;-77
2023/03/30 03:07:26;;;;;;;;;2.17;2.00;;;;;16.70;53.28;100849.81;1982124;28;2741925;-77
2023/03/30 03:08:42;;;;;;;;;4.33;2.50;;;;;16.70;53.27;100849.81;1981039;28;2731525;-77
2023/03/30 03:09:55;;;;;;;;;1.00;1.00;;;;;16.69;53.46;100834.84;1983126;28;2722122;-77
2023/03/30 03:11:09;;;;;;;;;3.33;1.17;;;;;16.69;53.63;100821.56;2003577;28;2743043;-77
2023/03/30 03:12:22;;;;;;;;;2.17;1.00;;;;;16.68;53.40;100822.50;1983168;28;2722145;-77
2023/03/30 03:13:37;;;;;;;;;1.50;1.50;;;;;16.67;53.38;100816.31;1982835;28;2725743;-77
2023/03/30 03:14:50;;;;;;;;;2.00;2.00;;;;;16.67;53.42;100816.31;1981959;28;2740445;-77
2023/03/30 03:16:05;;;;;;;;;2.67;1.33;;;;;16.67;53.21;100834.06;1989694;28;2723688;-77
2023/03/30 03:17:21;;;;;;;;;2.00;1.00;;;;;16.65;53.40;100826.19;1989301;28;2722137;-77
2023/03/30 03:18:34;;;;;;;;;3.17;2.00;;;;;16.64;53.39;100837.75;1981165;28;2736788;-77
2023/03/30 03:19:48;;;;;;;;;2.00;2.00;;;;;16.64;53.43;100821.84;1980691;28;2746598;-77
2023/03/30 03:21:01;;;;;;;;;1.67;1.67;;;;;16.64;53.42;100817.38;1990426;28;2726333;-77
2023/03/30 03:22:15;;;;;;;;;1.00;1.00;;;;;16.64;53.63;100827.97;1988534;28;2726308;-77
2023/03/30 03:23:28;;;;;;;;;2.83;1.67;;;;;16.64;53.40;100830.63;1982164;28;2733595;-77
2023/03/30 03:24:41;;;;;;;;;2.83;1.50;;;;;16.64;53.39;100830.63;1981955;28;2736163;-77
2023/03/30 03:25:54;;;;;;;;;2.33;2.00;;;;;16.63;53.84;100830.72;1973228;28;2731890;-77
2023/03/30 03:27:08;;;;;;;;;1.00;1.00;;;;;16.62;53.53;100835.16;1976426;28;2725738;-77
2023/03/30 03:28:21;;;;;;;;;3.33;1.00;;;;;16.62;53.58;100821.91;1980536;28;2734660;-77
2023/03/30 03:29:35;;;;;;;;;2.00;2.00;;;;;16.63;53.40;100822.78;2011756;28;2750254;-77
2023/03/30 03:30:48;;;;;;;;;2.33;2.00;;;;;16.62;53.56;100827.22;1996160;28;2726308;-77
2023/03/30 03:32:02;;;;;;;;;1.67;1.33;;;;;16.62;53.96;100853.75;2012047;28;2729472;-77
2023/03/30 03:33:15;;;;;;;;;2.50;1.00;;;;;16.61;53.87;100838.78;1982326;28;2725291;-77
2023/03/30 03:34:31;;;;;;;;;1.00;1.00;;;;;16.62;53.75;100845.78;2011848;28;2727330;-77
2023/03/30 03:35:45;;;;;;;;;2.00;2.00;;;;;16.60;53.83;100837.06;2014982;28;2746095;-78
2023/03/30 03:36:58;;;;;;;;;1.00;1.00;;;;;16.59;53.64;100837.16;1982303;28;2729425;-77
2023/03/30 03:38:08;;;;;;;;;4.00;2.00;;;;;16.58;53.75;100843.41;1955151;28;2752378;-77
2023/03/30 03:39:20;;;;;;;;;2.00;2.00;;;;;16.58;53.67;100838.09;2003662;28;2725359;-77
2023/03/30 03:40:33;;;;;;;;;1.67;1.67;;;;;16.57;53.47;100834.56;1982167;28;2729453;-77
2023/03/30 03:41:46;;;;;;;;;3.17;2.00;;;;;16.56;53.74;100827.56;1982103;28;2733069;-77
2023/03/30 03:42:59;;;;;;;;;1.83;1.83;;;;;16.57;54.10;100828.44;1980641;28;2733599;-77
2023/03/30 03:44:13;;;;;;;;;1.00;1.00;;;;;16.53;53.92;100827.75;2006176;28;2725797;-77
2023/03/30 03:45:26;;;;;;;;;1.00;1.00;;;;;16.52;54.02;100828.69;1982109;28;2724766;-77
2023/03/30 03:46:39;;;;;;;;;1.50;1.50;;;;;16.50;53.92;100835.88;2005751;28;2726305;-77
2023/03/30 03:47:53;;;;;;;;;1.17;1.17;;;;;16.51;53.71;100845.56;2005108;28;2714907;-77
2023/03/30 03:49:06;;;;;;;;;5.00;2.00;;;;;16.50;54.19;100841.19;1981815;28;2738811;-77
2023/03/30 03:50:19;;;;;;;;;0.17;0.17;;;;;16.50;53.79;100835.88;1982310;28;2725274;-77
2023/03/30 03:51:33;;;;;;;;;2.67;1.83;;;;;16.50;54.26;100839.38;2005293;28;2739870;-77
2023/03/30 03:52:46;;;;;;;;;6.50;2.00;;;;;16.49;54.15;100835.03;1973873;28;2750257;-77
2023/03/30 03:54:00;;;;;;;;;1.00;1.00;;;;;16.51;54.08;100840.25;1974816;28;2725534;-77
2023/03/30 03:55:14;;;;;;;;;1.50;1.00;;;;;16.51;54.08;100832.28;1981845;28;2726815;-77
2023/03/30 03:56:27;;;;;;;;;1.83;0.83;;;;;16.50;54.12;100835.88;2005179;28;2721088;-77
2023/03/30 03:57:40;;;;;;;;;1.33;1.00;;;;;16.49;53.93;100829.72;1982794;28;2725298;-77
2023/03/30 03:58:51;;;;;;;;;3.67;2.33;;;;;16.47;54.20;100839.56;1978986;28;2754452;-77
2023/03/30 04:00:14;;;;;;;;;2.67;2.00;;;;;16.46;53.89;100839.66;2003774;28;2749751;-77
2023/03/30 04:01:28;;;;;;;;;2.83;2.00;;;;;16.43;53.89;100840.69;2003719;28;2751304;-77
2023/03/30 04:02:43;;;;;;;;;2.00;2.00;;;;;16.40;54.27;100847.00;1982178;28;2739876;-77
2023/03/30 04:03:56;;;;;;;;;2.00;1.17;;;;;16.37;54.22;100847.16;2002802;28;2734630;-77
2023/03/30 04:05:09;;;;;;;;;1.00;1.00;;;;;16.36;54.54;100855.22;2005587;28;2723652;-77
2023/03/30 04:06:23;;;;;;;;;1.50;1.50;;;;;16.34;54.46;100851.81;1982167;28;2727366;-77
2023/03/30 04:07:37;;;;;;;;;1.50;0.50;;;;;16.31;54.39;100859.00;1974000;28;2733990;-77
2023/03/30 04:08:50;;;;;;;;;5.33;1.17;;;;;16.29;54.60;100863.53;1998551;28;2729518;-77
2023/03/30 04:10:05;;;;;;;;;1.17;1.17;;;;;16.29;54.30;100860.88;1981972;28;2725298;-77
2023/03/30 04:11:16;;;;;;;;;2.00;2.00;;;;;16.26;54.33;100855.75;1948589;28;2749221;-77
2023/03/30 04:12:30;;;;;;;;;1.83;1.50;;;;;16.26;54.17;100860.19;1997739;28;2725258;-77
2023/03/30 04:13:43;;;;;;;;;2.17;2.00;;;;;16.24;54.67;100857.63;1972393;28;2743002;-77
2023/03/30 04:14:56;;;;;;;;;3.83;1.83;;;;;16.24;54.46;100851.47;1974614;28;2734648;-77
2023/03/30 04:16:09;;;;;;;;;4.00;1.33;;;;;16.25;54.51;100858.50;1982488;28;2732012;-77
2023/03/30 04:17:23;;;;;;;;;1.67;1.67;;;;;16.24;54.54;100859.41;1982255;28;2722162;-77
2023/03/30 04:18:36;;;;;;;;;2.17;1.83;;;;;16.23;54.42;100852.38;1982053;28;2734717;-77
2023/03/30 04:19:53;;;;;;;;;3.83;1.17;;;;;16.21;54.61;100852.47;1978736;28;2732585;-77
2023/03/30 04:21:11;;;;;;;;;3.33;1.33;;;;;16.22;54.62;100848.91;1981810;28;2727358;-77
2023/03/30 04:22:25;;;;;;;;;0.33;0.33;;;;;16.21;54.63;100841.88;1982978;28;2727861;-77
2023/03/30 04:23:38;;;;;;;;;1.00;1.00;;;;;16.19;54.61;100847.28;2004203;28;2727350;-77
2023/03/30 04:24:52;;;;;;;;;1.83;1.83;;;;;16.18;54.68;100842.91;1982204;28;2734649;-77
2023/03/30 04:26:06;;;;;;;;;2.00;1.00;;;;;16.17;54.87;100841.19;1989686;28;2717963;-77
2023/03/30 04:27:19;;;;;;;;;2.50;2.00;;;;;16.16;54.58;100844.78;2009942;28;2739862;-77
2023/03/30 04:28:34;;;;;;;;;4.67;1.67;;;;;16.16;54.90;100844.78;1981610;28;2735694;-77
2023/03/30 04:29:47;;;;;;;;;1.17;1.00;;;;;16.15;54.84;100847.53;1973440;28;2727338;-77
2023/03/30 04:31:03;;;;;;;;;1.83;1.83;;;;;16.14;54.69;100859.94;1974476;28;2723197;-77
2023/03/30 04:32:19;;;;;;;;;1.67;1.00;;;;;16.13;54.78;100844.09;1995769;28;2737209;-77
2023/03/30 04:33:33;;;;;;;;;3.00;2.67;;;;;16.13;54.97;100860.00;1966667;28;2754536;-77
2023/03/30 04:34:46;;;;;;;;;4.00;1.00;;;;;16.10;54.90;100853.06;1973387;28;2716918;-77
2023/03/30 04:36:00;;;;;;;;;2.50;2.00;;;;;16.10;54.67;100849.59;1996662;28;2753381;-77
2023/03/30 04:37:17;;;;;;;;;2.00;2.00;;;;;16.08;55.14;100847.00;1981434;28;2739892;-77
2023/03/30 04:38:30;;;;;;;;;4.67;1.33;;;;;16.06;55.35;100857.69;1983511;28;2734668;-77
2023/03/30 04:39:43;;;;;;;;;1.33;1.00;;;;;16.05;55.07;100847.19;1983721;28;2728416;-77
2023/03/30 04:41:00;;;;;;;;;2.00;1.33;;;;;16.03;55.14;100849.00;1982848;28;2733603;-77
2023/03/30 04:42:14;;;;;;;;;2.00;1.50;;;;;16.02;55.31;100848.19;1983970;28;2727393;-77
2023/03/30 04:43:27;;;;;;;;;2.67;2.00;;;;;16.00;55.35;100842.06;1977122;28;2753430;-77
2023/03/30 04:44:40;;;;;;;;;2.33;1.33;;;;;16.01;55.39;100842.94;1981576;28;2733678;-77
2023/03/30 04:45:55;;;;;;;;;1.00;1.00;;;;;16.00;55.47;100846.53;1982405;28;2725301;-77
2023/03/30 04:47:08;;;;;;;;;2.33;1.00;;;;;15.97;55.54;100840.47;1981725;28;2725255;-77
2023/03/30 04:48:21;;;;;;;;;2.00;2.00;;;;;15.96;55.62;100846.69;1979560;28;2748204;-77
2023/03/30 04:49:34;;;;;;;;;2.00;2.00;;;;;15.96;55.70;100849.34;2004779;28;2745093;-77
2023/03/30 04:50:50;;;;;;;;;1.83;1.83;;;;;15.96;55.82;100838.75;1983606;28;2731520;-77
2023/03/30 04:52:03;;;;;;;;;3.33;2.00;;;;;15.93;55.69;100846.84;1981904;28;2745084;-77
2023/03/30 04:53:17;;;;;;;;;1.33;0.00;;;;;15.91;55.59;100846.09;1983330;28;2735674;-77
2023/03/30 04:54:30;;;;;;;;;3.50;2.00;;;;;15.90;55.71;100852.31;1982582;28;2739850;-77
2023/03/30 04:55:48;;;;;;;;;2.17;2.17;;;;;15.89;55.51;100853.28;1990812;28;2736792;-77
2023/03/30 04:57:01;;;;;;;;;2.50;1.00;;;;;15.88;55.72;100853.38;1987644;28;2731533;-77
2023/03/30 04:58:12;;;;;;;;;3.33;2.00;;;;;15.87;55.66;100860.47;1957695;28;2751319;-77
2023/03/30 04:59:23;;;;;;;;;4.00;3.00;;;;;15.84;55.83;100858.81;2004491;28;2733611;-77
2023/03/30 05:00:37;;;;;;;;;2.50;1.17;;;;;15.84;55.74;100865.91;1981822;28;2727724;-77
2023/03/30 05:01:50;;;;;;;;;2.00;2.00;;;;;15.81;55.92;100861.63;1980508;28;2728398;-77
2023/03/30 05:03:00;;;;;;;;;3.00;2.00;;;;;15.81;56.10;100864.28;1962431;28;2750289;-77
2023/03/30 05:04:11;;;;;;;;;2.00;2.00;;;;;15.80;55.85;100864.38;2004042;28;2726335;-77
2023/03/30 05:05:25;;;;;;;;;1.17;1.17;;;;;15.80;56.11;100870.53;2005311;28;2729444;-77
2023/03/30 05:06:38;;;;;;;;;3.17;2.00;;;;;15.78;55.97;100866.25;1980433;28;2751795;-77
2023/03/30 05:07:52;;;;;;;;;2.67;2.00;;;;;15.78;56.28;100871.56;1982423;28;2746123;-77
2023/03/30 05:09:06;;;;;;;;;2.33;2.00;;;;;15.77;56.27;100875.13;1982261;28;2737758;-77
2023/03/30 05:10:20;;;;;;;;;3.33;1.00;;;;;15.75;56.10;100880.53;1975127;28;2737750;-77
2023/03/30 05:11:33;;;;;;;;;1.33;1.17;;;;;15.72;56.30;100868.28;1976762;28;2729461;-77
2023/03/30 05:12:47;;;;;;;;;2.00;1.00;;;;;15.70;56.03;100869.31;1975311;28;2723184;-77
2023/03/30 05:14:00;;;;;;;;;1.00;1.00;;;;;15.69;56.42;100873.75;1974985;28;2728412;-77
2023/03/30 05:15:14;;;;;;;;;3.17;1.83;;;;;15.67;56.16;100880.91;1998173;28;2741944;-77
2023/03/30 05:16:27;;;;;;;;;5.00;2.17;;;;;15.67;56.26;100877.41;1975176;28;2753426;-77
2023/03/30 05:17:41;;;;;;;;;3.33;1.67;;;;;15.66;56.39;100886.28;1981341;28;2746150;-77
2023/03/30 05:18:55;;;;;;;;;3.00;1.00;;;;;15.65;56.79;100888.09;1983054;28;2731549;-77
2023/03/30 05:20:09;;;;;;;;;3.17;1.00;;;;;15.64;56.46;100902.25;2005203;28;2727445;-77
2023/03/30 05:21:22;;;;;;;;;1.33;1.33;;;;;15.61;56.39;100905.06;1982742;28;2730491;-78
2023/03/30 05:22:36;;;;;;;;;2.00;1.00;;;;;15.60;56.71;100906.03;1997841;28;2727408;-77
2023/03/30 05:23:49;;;;;;;;;0.83;0.83;;;;;15.58;56.41;100918.50;1982795;28;2724237;-77
2023/03/30 05:25:03;;;;;;;;;0.83;0.67;;;;;15.56;56.60;100912.38;2011863;28;2734701;-77
2023/03/30 05:26:16;;;;;;;;;6.50;1.33;;;;;15.56;56.38;100930.94;1981280;28;2746110;-78
2023/03/30 05:27:30;;;;;;;;;1.83;1.33;;;;;15.52;56.56;100917.88;1975415;28;2724780;-77
2023/03/30 05:28:43;;;;;;;;;1.00;1.00;;;;;15.51;56.31;100936.47;1976715;28;2729496;-77
2023/03/30 05:29:56;;;;;;;;;1.67;1.67;;;;;15.47;56.68;100927.84;1981983;28;2732618;-77
2023/03/30 05:31:10;;;;;;;;;2.17;1.83;;;;;15.47;56.89;100927.84;1974622;28;2739838;-78
2023/03/30 05:32:23;;;;;;;;;2.00;2.00;;;;;15.45;56.74;100935.00;1975938;28;2730487;-78
2023/03/30 05:33:36;;;;;;;;;1.17;1.17;;;;;15.45;56.75;100934.16;1983699;28;2744026;-77
2023/03/30 05:34:47;;;;;;;;;2.67;2.67;;;;;15.45;56.98;100936.78;1978478;28;2751776;-77
2023/03/30 05:35:58;;;;;;;;;4.00;1.00;;;;;15.45;57.25;100934.16;2004171;28;2736720;-77
2023/03/30 05:37:11;;;;;;;;;1.17;1.00;;;;;15.46;56.85;100942.00;2004733;28;2732559;-77
2023/03/30 05:38:24;;;;;;;;;1.67;1.67;;;;;15.47;56.83;100937.56;1981526;28;2734702;-77
2023/03/30 05:39:37;;;;;;;;;2.00;2.00;;;;;15.48;57.10;100940.13;2005507;28;2728726;-77
2023/03/30 05:40:52;;;;;;;;;2.83;1.83;;;;;15.48;57.00;100942.78;1989815;28;2731551;-77
2023/03/30 05:42:06;;;;;;;;;1.67;1.67;;;;;15.48;57.10;100934.84;1991175;28;2733581;-77
2023/03/30 05:43:19;;;;;;;;;2.00;1.00;;;;;15.51;56.91;100941.75;1975587;28;2727354;-77
2023/03/30 05:44:33;;;;;;;;;3.00;2.67;;;;;15.51;56.68;100939.97;2000906;28;2749276;-77
2023/03/30 05:45:46;;;;;;;;;3.33;1.67;;;;;15.53;56.97;100943.41;1978941;28;2737782;-77
2023/03/30 05:46:59;;;;;;;;;1.33;1.33;;;;;15.55;56.85;100950.44;1975170;28;2725350;-77
2023/03/30 05:48:13;;;;;;;;;2.17;2.17;;;;;15.56;56.86;100944.19;1974718;28;2735710;-77
2023/03/30 05:49:26;;;;;;;;;1.00;1.00;;;;;15.57;56.89;100948.56;1982669;28;2729417;-77
2023/03/30 05:50:40;;;;;;;;;3.00;1.00;;;;;15.58;56.70;100951.13;2005321;28;2725302;-77